sensor_id;sensor_type;location;lat;lon;timestamp;temperature;humidity
11087;DHT22;5597;47.588;9.642;2023-06-10T00:02:16;18.00;97.40
11087;DHT22;5597;47.588;9.642;2023-06-10T00:04:42;18.00;97.60
11087;DHT22;5597;47.588;9.642;2023-06-10T00:07:08;17.90;97.70
11087;DHT22;5597;47.588;9.642;2023-06-10T00:09:37;17.90;97.70
11087;DHT22;5597;47.588;9.642;2023-06-10T00:12:07;17.80;97.70
11087;DHT22;5597;47.588;9.642;2023-06-10T00:14:35;17.80;97.80
11087;DHT22;5597;47.588;9.642;2023-06-10T00:17:01;17.80;97.90
11087;DHT22;5597;47.588;9.642;2023-06-10T00:19:27;17.70;98.20
11087;DHT22;5597;47.588;9.642;2023-06-10T00:21:55;17.70;98.00
11087;DHT22;5597;47.588;9.642;2023-06-10T00:24:21;17.70;98.10
11087;DHT22;5597;47.588;9.642;2023-06-10T00:26:47;17.70;98.10
11087;DHT22;5597;47.588;9.642;2023-06-10T00:29:13;17.70;98.10
11087;DHT22;5597;47.588;9.642;2023-06-10T00:31:39;17.70;98.20
11087;DHT22;5597;47.588;9.642;2023-06-10T00:34:06;17.70;98.30
11087;DHT22;5597;47.588;9.642;2023-06-10T00:36:32;17.60;98.50
11087;DHT22;5597;47.588;9.642;2023-06-10T00:38:58;17.50;98.50
11087;DHT22;5597;47.588;9.642;2023-06-10T00:41:24;17.50;98.60
11087;DHT22;5597;47.588;9.642;2023-06-10T00:43:51;17.40;98.80
11087;DHT22;5597;47.588;9.642;2023-06-10T00:46:17;17.30;98.90
11087;DHT22;5597;47.588;9.642;2023-06-10T00:48:44;17.30;99.20
11087;DHT22;5597;47.588;9.642;2023-06-10T00:51:10;17.20;99.20
11087;DHT22;5597;47.588;9.642;2023-06-10T00:53:40;17.10;99.10
11087;DHT22;5597;47.588;9.642;2023-06-10T00:56:06;17.10;99.20
11087;DHT22;5597;47.588;9.642;2023-06-10T00:58:32;17.00;99.20
11087;DHT22;5597;47.588;9.642;2023-06-10T01:00:58;17.00;99.20
11087;DHT22;5597;47.588;9.642;2023-06-10T01:03:24;17.00;99.40
11087;DHT22;5597;47.588;9.642;2023-06-10T01:11:52;16.90;99.90
11087;DHT22;5597;47.588;9.642;2023-06-10T01:14:22;16.70;99.90
11087;DHT22;5597;47.588;9.642;2023-06-10T01:16:48;16.60;99.90
11087;DHT22;5597;47.588;9.642;2023-06-10T01:19:15;16.50;99.90
11087;DHT22;5597;47.588;9.642;2023-06-10T01:21:43;16.40;99.90
11087;DHT22;5597;47.588;9.642;2023-06-10T01:24:18;16.40;99.90
11087;DHT22;5597;47.588;9.642;2023-06-10T01:26:53;16.30;99.90
11087;DHT22;5597;47.588;9.642;2023-06-10T01:32:05;16.20;99.90
11087;DHT22;5597;47.588;9.642;2023-06-10T01:34:32;16.10;99.90
11087;DHT22;5597;47.588;9.642;2023-06-10T01:36:58;16.00;99.90
11087;DHT22;5597;47.588;9.642;2023-06-10T01:39:24;15.80;99.90
11087;DHT22;5597;47.588;9.642;2023-06-10T01:41:52;15.80;99.90
11087;DHT22;5597;47.588;9.642;2023-06-10T01:44:22;15.70;99.90
11087;DHT22;5597;47.588;9.642;2023-06-10T01:46:48;15.60;99.90
11087;DHT22;5597;47.588;9.642;2023-06-10T01:49:14;15.50;99.90
11087;DHT22;5597;47.588;9.642;2023-06-10T01:51:40;15.50;99.90
11087;DHT22;5597;47.588;9.642;2023-06-10T01:54:05;15.60;99.90
11087;DHT22;5597;47.588;9.642;2023-06-10T01:56:32;15.60;99.90
11087;DHT22;5597;47.588;9.642;2023-06-10T01:58:58;15.50;99.90
11087;DHT22;5597;47.588;9.642;2023-06-10T02:01:27;15.40;99.90
11087;DHT22;5597;47.588;9.642;2023-06-10T02:03:52;15.30;99.90
11087;DHT22;5597;47.588;9.642;2023-06-10T02:06:18;15.20;99.90
11087;DHT22;5597;47.588;9.642;2023-06-10T02:08:44;15.20;99.90
11087;DHT22;5597;47.588;9.642;2023-06-10T02:11:09;15.10;99.90
11087;DHT22;5597;47.588;9.642;2023-06-10T02:13:35;14.90;99.90
11087;DHT22;5597;47.588;9.642;2023-06-10T02:16:01;14.80;99.90
11087;DHT22;5597;47.588;9.642;2023-06-10T02:18:28;14.60;99.90
11087;DHT22;5597;47.588;9.642;2023-06-10T02:20:54;14.50;99.90
11087;DHT22;5597;47.588;9.642;2023-06-10T02:23:19;14.50;99.90
11087;DHT22;5597;47.588;9.642;2023-06-10T02:25:45;14.50;99.90
11087;DHT22;5597;47.588;9.642;2023-06-10T02:28:22;14.50;99.90
11087;DHT22;5597;47.588;9.642;2023-06-10T02:30:48;14.50;99.90
11087;DHT22;5597;47.588;9.642;2023-06-10T02:33:14;14.40;99.90
11087;DHT22;5597;47.588;9.642;2023-06-10T02:35:40;14.30;99.90
11087;DHT22;5597;47.588;9.642;2023-06-10T02:38:06;14.10;99.90
11087;DHT22;5597;47.588;9.642;2023-06-10T02:40:32;14.00;99.90
11087;DHT22;5597;47.588;9.642;2023-06-10T02:42:58;13.90;99.90
11087;DHT22;5597;47.588;9.642;2023-06-10T02:45:24;13.80;99.90
11087;DHT22;5597;47.588;9.642;2023-06-10T02:47:50;13.80;99.90
11087;DHT22;5597;47.588;9.642;2023-06-10T02:50:15;13.90;99.90
11087;DHT22;5597;47.588;9.642;2023-06-10T02:52:42;13.90;99.90
11087;DHT22;5597;47.588;9.642;2023-06-10T02:55:07;13.90;99.90
11087;DHT22;5597;47.588;9.642;2023-06-10T02:57:33;13.90;99.90
11087;DHT22;5597;47.588;9.642;2023-06-10T02:59:58;13.80;99.90
11087;DHT22;5597;47.588;9.642;2023-06-10T03:02:25;13.70;99.90
11087;DHT22;5597;47.588;9.642;2023-06-10T03:04:56;13.70;99.90
11087;DHT22;5597;47.588;9.642;2023-06-10T03:07:23;13.70;99.90
11087;DHT22;5597;47.588;9.642;2023-06-10T03:09:49;13.60;99.90
11087;DHT22;5597;47.588;9.642;2023-06-10T03:12:15;13.50;99.90
11087;DHT22;5597;47.588;9.642;2023-06-10T03:14:41;13.50;99.90
11087;DHT22;5597;47.588;9.642;2023-06-10T03:17:07;13.50;99.90
11087;DHT22;5597;47.588;9.642;2023-06-10T03:19:34;13.60;99.90
11087;DHT22;5597;47.588;9.642;2023-06-10T03:22:13;13.60;99.90
11087;DHT22;5597;47.588;9.642;2023-06-10T03:24:40;13.60;99.90
11087;DHT22;5597;47.588;9.642;2023-06-10T03:27:12;13.60;99.90
11087;DHT22;5597;47.588;9.642;2023-06-10T03:29:39;13.60;99.90
11087;DHT22;5597;47.588;9.642;2023-06-10T03:32:05;13.60;99.90
11087;DHT22;5597;47.588;9.642;2023-06-10T03:34:31;13.50;99.90
11087;DHT22;5597;47.588;9.642;2023-06-10T03:36:57;13.50;99.90
11087;DHT22;5597;47.588;9.642;2023-06-10T03:39:23;13.60;99.90
11087;DHT22;5597;47.588;9.642;2023-06-10T03:41:49;13.60;99.90
11087;DHT22;5597;47.588;9.642;2023-06-10T03:44:15;13.60;99.90
11087;DHT22;5597;47.588;9.642;2023-06-10T03:46:41;13.60;99.90
11087;DHT22;5597;47.588;9.642;2023-06-10T03:49:07;13.60;99.90
11087;DHT22;5597;47.588;9.642;2023-06-10T03:51:32;13.60;99.90
11087;DHT22;5597;47.588;9.642;2023-06-10T03:53:58;13.60;99.90
11087;DHT22;5597;47.588;9.642;2023-06-10T03:56:24;13.60;99.90
11087;DHT22;5597;47.588;9.642;2023-06-10T03:58:51;13.50;99.90
11087;DHT22;5597;47.588;9.642;2023-06-10T04:01:17;13.40;99.90
11087;DHT22;5597;47.588;9.642;2023-06-10T04:03:47;13.30;99.90
11087;DHT22;5597;47.588;9.642;2023-06-10T04:06:14;13.40;99.90
11087;DHT22;5597;47.588;9.642;2023-06-10T04:08:40;13.50;99.90
11087;DHT22;5597;47.588;9.642;2023-06-10T04:11:05;13.60;99.90
11087;DHT22;5597;47.588;9.642;2023-06-10T04:13:31;13.60;99.90
11087;DHT22;5597;47.588;9.642;2023-06-10T04:15:57;13.70;99.90
11087;DHT22;5597;47.588;9.642;2023-06-10T04:18:23;13.80;99.90
11087;DHT22;5597;47.588;9.642;2023-06-10T04:20:48;13.90;99.90
11087;DHT22;5597;47.588;9.642;2023-06-10T04:23:14;13.90;99.90
11087;DHT22;5597;47.588;9.642;2023-06-10T04:25:40;13.90;99.90
11087;DHT22;5597;47.588;9.642;2023-06-10T04:28:05;13.90;99.90
11087;DHT22;5597;47.588;9.642;2023-06-10T04:30:31;13.90;99.90
11087;DHT22;5597;47.588;9.642;2023-06-10T04:32:57;14.00;99.90
11087;DHT22;5597;47.588;9.642;2023-06-10T04:35:23;14.10;99.90
11087;DHT22;5597;47.588;9.642;2023-06-10T04:37:48;14.20;99.90
11087;DHT22;5597;47.588;9.642;2023-06-10T04:40:14;14.30;99.90
11087;DHT22;5597;47.588;9.642;2023-06-10T04:42:41;14.50;99.90
11087;DHT22;5597;47.588;9.642;2023-06-10T04:45:07;14.60;99.90
11087;DHT22;5597;47.588;9.642;2023-06-10T04:47:33;14.70;99.90
11087;DHT22;5597;47.588;9.642;2023-06-10T04:49:59;14.80;99.90
11087;DHT22;5597;47.588;9.642;2023-06-10T04:52:25;14.90;99.90
11087;DHT22;5597;47.588;9.642;2023-06-10T04:54:51;15.10;99.90
11087;DHT22;5597;47.588;9.642;2023-06-10T04:57:16;15.20;99.90
11087;DHT22;5597;47.588;9.642;2023-06-10T04:59:42;15.30;99.90
11087;DHT22;5597;47.588;9.642;2023-06-10T05:02:08;15.40;99.90
11087;DHT22;5597;47.588;9.642;2023-06-10T05:04:33;15.40;99.90
11087;DHT22;5597;47.588;9.642;2023-06-10T05:06:59;15.50;99.90
11087;DHT22;5597;47.588;9.642;2023-06-10T05:09:25;15.60;99.90
11087;DHT22;5597;47.588;9.642;2023-06-10T05:11:51;15.70;99.90
11087;DHT22;5597;47.588;9.642;2023-06-10T05:14:22;15.80;99.90
11087;DHT22;5597;47.588;9.642;2023-06-10T05:16:48;15.90;99.90
11087;DHT22;5597;47.588;9.642;2023-06-10T05:19:14;15.90;99.90
11087;DHT22;5597;47.588;9.642;2023-06-10T05:21:41;16.00;99.90
11087;DHT22;5597;47.588;9.642;2023-06-10T05:24:07;16.10;99.90
11087;DHT22;5597;47.588;9.642;2023-06-10T05:26:33;16.20;99.90
11087;DHT22;5597;47.588;9.642;2023-06-10T05:29:03;16.30;99.90
11087;DHT22;5597;47.588;9.642;2023-06-10T05:31:28;16.50;99.90
11087;DHT22;5597;47.588;9.642;2023-06-10T05:33:54;16.60;99.90
11087;DHT22;5597;47.588;9.642;2023-06-10T05:36:20;16.70;99.90
11087;DHT22;5597;47.588;9.642;2023-06-10T05:38:46;16.90;99.90
11087;DHT22;5597;47.588;9.642;2023-06-10T05:41:11;17.00;99.90
11087;DHT22;5597;47.588;9.642;2023-06-10T05:43:37;17.10;99.90
11087;DHT22;5597;47.588;9.642;2023-06-10T05:46:03;17.30;99.90
11087;DHT22;5597;47.588;9.642;2023-06-10T05:48:28;17.40;99.90
11087;DHT22;5597;47.588;9.642;2023-06-10T05:50:54;17.60;99.90
11087;DHT22;5597;47.588;9.642;2023-06-10T05:53:21;17.80;99.90
11087;DHT22;5597;47.588;9.642;2023-06-10T05:55:46;18.10;99.90
11087;DHT22;5597;47.588;9.642;2023-06-10T05:58:13;18.30;99.90
11087;DHT22;5597;47.588;9.642;2023-06-10T06:00:39;18.50;99.90
11087;DHT22;5597;47.588;9.642;2023-06-10T06:03:08;18.70;99.90
11087;DHT22;5597;47.588;9.642;2023-06-10T06:05:34;18.80;99.90
11087;DHT22;5597;47.588;9.642;2023-06-10T06:08:04;19.00;99.90
11087;DHT22;5597;47.588;9.642;2023-06-10T06:10:30;19.10;99.90
11087;DHT22;5597;47.588;9.642;2023-06-10T06:12:56;19.30;99.90
11087;DHT22;5597;47.588;9.642;2023-06-10T06:15:21;19.40;99.90
11087;DHT22;5597;47.588;9.642;2023-06-10T06:17:47;19.50;99.90
11087;DHT22;5597;47.588;9.642;2023-06-10T06:20:13;19.60;99.90
11087;DHT22;5597;47.588;9.642;2023-06-10T06:22:38;19.70;99.90
11087;DHT22;5597;47.588;9.642;2023-06-10T06:25:05;19.70;99.90
11087;DHT22;5597;47.588;9.642;2023-06-10T06:27:31;19.80;99.90
11087;DHT22;5597;47.588;9.642;2023-06-10T06:29:57;20.00;99.90
11087;DHT22;5597;47.588;9.642;2023-06-10T06:32:22;20.10;99.90
11087;DHT22;5597;47.588;9.642;2023-06-10T06:34:50;20.30;99.90
11087;DHT22;5597;47.588;9.642;2023-06-10T06:37:23;20.50;99.90
11087;DHT22;5597;47.588;9.642;2023-06-10T06:39:52;20.70;99.90
11087;DHT22;5597;47.588;9.642;2023-06-10T06:42:19;20.80;99.90
11087;DHT22;5597;47.588;9.642;2023-06-10T06:44:45;20.90;99.90
11087;DHT22;5597;47.588;9.642;2023-06-10T06:47:11;21.00;99.90
11087;DHT22;5597;47.588;9.642;2023-06-10T06:49:37;21.20;99.90
11087;DHT22;5597;47.588;9.642;2023-06-10T06:52:03;21.30;99.90
11087;DHT22;5597;47.588;9.642;2023-06-10T06:54:29;21.40;99.90
11087;DHT22;5597;47.588;9.642;2023-06-10T06:56:55;21.60;99.90
11087;DHT22;5597;47.588;9.642;2023-06-10T06:59:20;21.60;99.90
11087;DHT22;5597;47.588;9.642;2023-06-10T07:01:46;21.60;99.90
11087;DHT22;5597;47.588;9.642;2023-06-10T07:04:14;21.70;99.90
11087;DHT22;5597;47.588;9.642;2023-06-10T07:06:40;21.70;99.90
11087;DHT22;5597;47.588;9.642;2023-06-10T07:09:07;21.70;99.90
11087;DHT22;5597;47.588;9.642;2023-06-10T07:11:34;21.80;99.90
11087;DHT22;5597;47.588;9.642;2023-06-10T07:14:00;21.80;99.90
11087;DHT22;5597;47.588;9.642;2023-06-10T07:16:25;21.90;99.90
11087;DHT22;5597;47.588;9.642;2023-06-10T07:18:52;21.80;99.90
11087;DHT22;5597;47.588;9.642;2023-06-10T07:21:18;21.80;99.90
11087;DHT22;5597;47.588;9.642;2023-06-10T07:23:44;21.80;99.90
11087;DHT22;5597;47.588;9.642;2023-06-10T07:26:10;21.80;99.90
11087;DHT22;5597;47.588;9.642;2023-06-10T07:28:41;22.00;99.90
11087;DHT22;5597;47.588;9.642;2023-06-10T07:31:07;22.00;99.90
11087;DHT22;5597;47.588;9.642;2023-06-10T07:33:33;22.00;99.90
11087;DHT22;5597;47.588;9.642;2023-06-10T07:35:59;22.10;99.90
11087;DHT22;5597;47.588;9.642;2023-06-10T07:38:26;22.30;99.90
11087;DHT22;5597;47.588;9.642;2023-06-10T07:40:51;22.40;99.90
11087;DHT22;5597;47.588;9.642;2023-06-10T07:43:17;22.50;99.90
11087;DHT22;5597;47.588;9.642;2023-06-10T07:45:44;22.50;99.90
11087;DHT22;5597;47.588;9.642;2023-06-10T07:48:09;22.60;99.90
11087;DHT22;5597;47.588;9.642;2023-06-10T07:50:35;22.60;99.90
11087;DHT22;5597;47.588;9.642;2023-06-10T07:53:01;22.50;99.90
11087;DHT22;5597;47.588;9.642;2023-06-10T07:55:27;22.50;99.90
11087;DHT22;5597;47.588;9.642;2023-06-10T07:57:53;22.50;99.90
11087;DHT22;5597;47.588;9.642;2023-06-10T08:00:19;22.50;99.90
11087;DHT22;5597;47.588;9.642;2023-06-10T08:02:45;22.50;99.90
11087;DHT22;5597;47.588;9.642;2023-06-10T08:05:11;22.60;99.90
11087;DHT22;5597;47.588;9.642;2023-06-10T08:07:36;22.80;99.90
11087;DHT22;5597;47.588;9.642;2023-06-10T08:10:03;23.00;99.90
11087;DHT22;5597;47.588;9.642;2023-06-10T08:12:29;23.20;99.90
11087;DHT22;5597;47.588;9.642;2023-06-10T08:14:55;23.30;99.90
11087;DHT22;5597;47.588;9.642;2023-06-10T08:17:21;23.40;99.90
11087;DHT22;5597;47.588;9.642;2023-06-10T08:19:47;23.50;99.90
11087;DHT22;5597;47.588;9.642;2023-06-10T08:22:12;23.50;99.90
11087;DHT22;5597;47.588;9.642;2023-06-10T08:24:38;23.60;99.90
11087;DHT22;5597;47.588;9.642;2023-06-10T08:27:04;23.70;99.90
11087;DHT22;5597;47.588;9.642;2023-06-10T08:29:31;23.80;99.90
11087;DHT22;5597;47.588;9.642;2023-06-10T08:31:57;23.80;99.90
11087;DHT22;5597;47.588;9.642;2023-06-10T08:34:24;23.80;99.90
11087;DHT22;5597;47.588;9.642;2023-06-10T08:36:49;23.90;99.90
11087;DHT22;5597;47.588;9.642;2023-06-10T08:39:23;23.90;99.90
11087;DHT22;5597;47.588;9.642;2023-06-10T08:44:50;24.00;99.90
11087;DHT22;5597;47.588;9.642;2023-06-10T08:47:19;23.90;99.90
11087;DHT22;5597;47.588;9.642;2023-06-10T08:49:46;23.70;99.90
11087;DHT22;5597;47.588;9.642;2023-06-10T08:52:19;23.70;99.90
11087;DHT22;5597;47.588;9.642;2023-06-10T08:55:00;23.70;99.90
11087;DHT22;5597;47.588;9.642;2023-06-10T08:57:28;23.90;99.90
11087;DHT22;5597;47.588;9.642;2023-06-10T08:59:56;24.00;99.90
11087;DHT22;5597;47.588;9.642;2023-06-10T09:02:23;24.00;99.90
11087;DHT22;5597;47.588;9.642;2023-06-10T09:04:50;24.20;99.90
11087;DHT22;5597;47.588;9.642;2023-06-10T09:07:17;24.30;99.90
11087;DHT22;5597;47.588;9.642;2023-06-10T09:09:44;24.40;99.90
11087;DHT22;5597;47.588;9.642;2023-06-10T09:12:10;24.50;99.90
11087;DHT22;5597;47.588;9.642;2023-06-10T09:14:37;24.60;99.90
11087;DHT22;5597;47.588;9.642;2023-06-10T09:17:03;24.80;99.90
11087;DHT22;5597;47.588;9.642;2023-06-10T09:19:29;24.90;99.90
11087;DHT22;5597;47.588;9.642;2023-06-10T09:21:55;25.00;99.90
11087;DHT22;5597;47.588;9.642;2023-06-10T09:24:22;25.20;99.90
11087;DHT22;5597;47.588;9.642;2023-06-10T09:26:49;25.30;99.90
11087;DHT22;5597;47.588;9.642;2023-06-10T09:29:16;25.40;99.90
11087;DHT22;5597;47.588;9.642;2023-06-10T09:31:44;25.50;99.90
11087;DHT22;5597;47.588;9.642;2023-06-10T09:34:14;25.60;99.90
11087;DHT22;5597;47.588;9.642;2023-06-10T09:36:41;25.70;99.90
11087;DHT22;5597;47.588;9.642;2023-06-10T09:39:19;25.90;99.90
11087;DHT22;5597;47.588;9.642;2023-06-10T09:41:45;26.00;99.90
11087;DHT22;5597;47.588;9.642;2023-06-10T09:44:15;26.10;99.90
11087;DHT22;5597;47.588;9.642;2023-06-10T09:46:42;26.20;99.90
11087;DHT22;5597;47.588;9.642;2023-06-10T09:49:08;26.30;99.90
11087;DHT22;5597;47.588;9.642;2023-06-10T09:51:33;26.30;99.90
11087;DHT22;5597;47.588;9.642;2023-06-10T09:54:03;26.30;99.90
11087;DHT22;5597;47.588;9.642;2023-06-10T09:56:38;26.30;99.90
11087;DHT22;5597;47.588;9.642;2023-06-10T09:59:08;26.30;99.90
11087;DHT22;5597;47.588;9.642;2023-06-10T10:01:34;26.30;99.90
11087;DHT22;5597;47.588;9.642;2023-06-10T10:04:00;26.40;99.90
11087;DHT22;5597;47.588;9.642;2023-06-10T10:06:27;26.40;99.90
11087;DHT22;5597;47.588;9.642;2023-06-10T10:08:54;26.40;99.90
11087;DHT22;5597;47.588;9.642;2023-06-10T10:11:21;26.30;99.90
11087;DHT22;5597;47.588;9.642;2023-06-10T10:13:49;26.20;99.90
11087;DHT22;5597;47.588;9.642;2023-06-10T10:16:17;26.30;99.90
11087;DHT22;5597;47.588;9.642;2023-06-10T10:18:54;26.40;99.90
11087;DHT22;5597;47.588;9.642;2023-06-10T10:21:26;26.50;99.90
11087;DHT22;5597;47.588;9.642;2023-06-10T10:24:23;26.60;99.90
11087;DHT22;5597;47.588;9.642;2023-06-10T10:26:49;26.80;99.90
11087;DHT22;5597;47.588;9.642;2023-06-10T10:29:45;26.90;99.90
11087;DHT22;5597;47.588;9.642;2023-06-10T10:32:13;27.00;99.90
11087;DHT22;5597;47.588;9.642;2023-06-10T10:35:03;27.20;99.90
11087;DHT22;5597;47.588;9.642;2023-06-10T10:37:33;27.50;99.90
11087;DHT22;5597;47.588;9.642;2023-06-10T10:39:59;27.90;99.90
11087;DHT22;5597;47.588;9.642;2023-06-10T10:42:26;28.00;99.90
11087;DHT22;5597;47.588;9.642;2023-06-10T10:44:52;28.20;99.90
11087;DHT22;5597;47.588;9.642;2023-06-10T10:47:21;28.50;99.90
11087;DHT22;5597;47.588;9.642;2023-06-10T10:49:50;28.60;99.90
11087;DHT22;5597;47.588;9.642;2023-06-10T10:52:17;28.50;99.80
11087;DHT22;5597;47.588;9.642;2023-06-10T10:54:45;28.60;99.90
11087;DHT22;5597;47.588;9.642;2023-06-10T10:57:12;28.70;99.90
11087;DHT22;5597;47.588;9.642;2023-06-10T11:02:41;29.00;99.30
11087;DHT22;5597;47.588;9.642;2023-06-10T11:05:15;29.00;99.60
11087;DHT22;5597;47.588;9.642;2023-06-10T11:07:53;29.00;97.80
11087;DHT22;5597;47.588;9.642;2023-06-10T11:10:32;29.00;98.70
11087;DHT22;5597;47.588;9.642;2023-06-10T11:12:58;29.00;97.80
11087;DHT22;5597;47.588;9.642;2023-06-10T11:15:28;29.00;97.10
11087;DHT22;5597;47.588;9.642;2023-06-10T11:18:11;29.00;96.80
11087;DHT22;5597;47.588;9.642;2023-06-10T11:28:40;29.30;97.40
11087;DHT22;5597;47.588;9.642;2023-06-10T11:31:06;29.50;97.00
11087;DHT22;5597;47.588;9.642;2023-06-10T11:33:32;29.60;96.90
11087;DHT22;5597;47.588;9.642;2023-06-10T11:35:58;29.80;96.10
11087;DHT22;5597;47.588;9.642;2023-06-10T11:38:24;30.00;96.90
11087;DHT22;5597;47.588;9.642;2023-06-10T11:40:51;30.10;96.00
11087;DHT22;5597;47.588;9.642;2023-06-10T11:43:17;30.20;95.70
11087;DHT22;5597;47.588;9.642;2023-06-10T11:45:43;30.40;95.50
11087;DHT22;5597;47.588;9.642;2023-06-10T11:48:10;30.50;93.90
11087;DHT22;5597;47.588;9.642;2023-06-10T11:50:36;30.50;94.60
11087;DHT22;5597;47.588;9.642;2023-06-10T11:53:03;30.60;93.80
11087;DHT22;5597;47.588;9.642;2023-06-10T11:55:49;30.60;93.10
11087;DHT22;5597;47.588;9.642;2023-06-10T11:58:20;30.60;93.40
11087;DHT22;5597;47.588;9.642;2023-06-10T12:00:49;30.50;93.00
11087;DHT22;5597;47.588;9.642;2023-06-10T12:03:16;30.60;93.70
11087;DHT22;5597;47.588;9.642;2023-06-10T12:08:24;30.70;92.90
11087;DHT22;5597;47.588;9.642;2023-06-10T12:10:50;30.80;93.00
11087;DHT22;5597;47.588;9.642;2023-06-10T12:13:16;31.00;92.90
11087;DHT22;5597;47.588;9.642;2023-06-10T12:15:43;31.20;92.10
11087;DHT22;5597;47.588;9.642;2023-06-10T12:18:25;31.20;91.40
11087;DHT22;5597;47.588;9.642;2023-06-10T12:20:51;31.40;92.00
11087;DHT22;5597;47.588;9.642;2023-06-10T12:23:17;31.60;91.60
11087;DHT22;5597;47.588;9.642;2023-06-10T12:25:51;31.70;91.30
11087;DHT22;5597;47.588;9.642;2023-06-10T12:28:24;31.90;91.10
11087;DHT22;5597;47.588;9.642;2023-06-10T12:30:50;32.10;90.60
11087;DHT22;5597;47.588;9.642;2023-06-10T12:33:21;32.30;88.40
11087;DHT22;5597;47.588;9.642;2023-06-10T12:35:50;32.40;88.30
11087;DHT22;5597;47.588;9.642;2023-06-10T12:38:24;32.50;87.80
11087;DHT22;5597;47.588;9.642;2023-06-10T12:40:50;32.70;89.50
11087;DHT22;5597;47.588;9.642;2023-06-10T12:43:20;33.00;85.00
11087;DHT22;5597;47.588;9.642;2023-06-10T12:45:46;32.80;84.60
11087;DHT22;5597;47.588;9.642;2023-06-10T12:48:20;32.70;86.50
11087;DHT22;5597;47.588;9.642;2023-06-10T12:50:54;32.80;85.80
11087;DHT22;5597;47.588;9.642;2023-06-10T12:53:21;33.00;85.20
11087;DHT22;5597;47.588;9.642;2023-06-10T12:55:49;33.40;83.30
11087;DHT22;5597;47.588;9.642;2023-06-10T12:58:15;33.50;82.10
11087;DHT22;5597;47.588;9.642;2023-06-10T13:00:41;33.60;81.80
11087;DHT22;5597;47.588;9.642;2023-06-10T13:03:08;33.70;82.10
11087;DHT22;5597;47.588;9.642;2023-06-10T13:05:35;33.90;83.40
11087;DHT22;5597;47.588;9.642;2023-06-10T13:08:02;34.10;78.60
11087;DHT22;5597;47.588;9.642;2023-06-10T13:10:28;34.30;80.40
11087;DHT22;5597;47.588;9.642;2023-06-10T13:12:54;34.60;78.70
11087;DHT22;5597;47.588;9.642;2023-06-10T13:15:22;34.80;79.30
11087;DHT22;5597;47.588;9.642;2023-06-10T13:17:48;35.10;77.60
11087;DHT22;5597;47.588;9.642;2023-06-10T13:20:15;35.20;74.60
11087;DHT22;5597;47.588;9.642;2023-06-10T13:22:41;35.20;74.30
11087;DHT22;5597;47.588;9.642;2023-06-10T13:25:08;35.20;75.00
11087;DHT22;5597;47.588;9.642;2023-06-10T13:27:34;35.40;74.00
11087;DHT22;5597;47.588;9.642;2023-06-10T13:30:00;35.50;73.50
11087;DHT22;5597;47.588;9.642;2023-06-10T13:32:26;35.60;74.00
11087;DHT22;5597;47.588;9.642;2023-06-10T13:34:51;35.60;73.20
11087;DHT22;5597;47.588;9.642;2023-06-10T13:37:19;35.70;74.10
11087;DHT22;5597;47.588;9.642;2023-06-10T13:39:45;35.90;70.20
11087;DHT22;5597;47.588;9.642;2023-06-10T13:42:14;35.50;69.50
11087;DHT22;5597;47.588;9.642;2023-06-10T13:44:39;35.00;66.50
11087;DHT22;5597;47.588;9.642;2023-06-10T13:47:06;34.60;66.90
11087;DHT22;5597;47.588;9.642;2023-06-10T13:49:32;34.30;64.30
11087;DHT22;5597;47.588;9.642;2023-06-10T13:51:57;34.00;61.70
11087;DHT22;5597;47.588;9.642;2023-06-10T13:54:23;33.60;63.60
11087;DHT22;5597;47.588;9.642;2023-06-10T13:56:49;33.40;64.20
11087;DHT22;5597;47.588;9.642;2023-06-10T13:59:14;33.40;61.10
11087;DHT22;5597;47.588;9.642;2023-06-10T14:01:40;33.40;62.60
11087;DHT22;5597;47.588;9.642;2023-06-10T14:04:09;33.40;62.70
11087;DHT22;5597;47.588;9.642;2023-06-10T14:06:34;33.20;61.10
11087;DHT22;5597;47.588;9.642;2023-06-10T14:09:03;32.90;62.40
11087;DHT22;5597;47.588;9.642;2023-06-10T14:11:29;32.60;63.30
11087;DHT22;5597;47.588;9.642;2023-06-10T14:13:55;32.50;63.90
11087;DHT22;5597;47.588;9.642;2023-06-10T14:16:21;32.40;63.80
11087;DHT22;5597;47.588;9.642;2023-06-10T14:18:47;32.20;65.60
11087;DHT22;5597;47.588;9.642;2023-06-10T14:21:13;32.30;64.60
11087;DHT22;5597;47.588;9.642;2023-06-10T14:23:38;32.00;64.90
11087;DHT22;5597;47.588;9.642;2023-06-10T14:26:04;31.90;64.20
11087;DHT22;5597;47.588;9.642;2023-06-10T14:28:32;31.80;63.70
11087;DHT22;5597;47.588;9.642;2023-06-10T14:30:58;31.70;64.40
11087;DHT22;5597;47.588;9.642;2023-06-10T14:33:23;31.80;65.90
11087;DHT22;5597;47.588;9.642;2023-06-10T14:35:49;32.20;65.50
11087;DHT22;5597;47.588;9.642;2023-06-10T14:38:15;32.50;66.10
11087;DHT22;5597;47.588;9.642;2023-06-10T14:40:41;32.70;63.70
11087;DHT22;5597;47.588;9.642;2023-06-10T14:43:06;32.50;61.90
11087;DHT22;5597;47.588;9.642;2023-06-10T14:45:36;32.00;63.70
11087;DHT22;5597;47.588;9.642;2023-06-10T14:48:03;31.80;64.40
11087;DHT22;5597;47.588;9.642;2023-06-10T14:50:29;31.50;65.20
11087;DHT22;5597;47.588;9.642;2023-06-10T14:52:55;31.60;64.70
11087;DHT22;5597;47.588;9.642;2023-06-10T14:55:20;31.50;66.60
11087;DHT22;5597;47.588;9.642;2023-06-10T14:57:48;31.50;66.50
11087;DHT22;5597;47.588;9.642;2023-06-10T15:00:15;31.60;68.30
11087;DHT22;5597;47.588;9.642;2023-06-10T15:02:42;32.00;67.50
11087;DHT22;5597;47.588;9.642;2023-06-10T15:05:08;32.50;66.10
11087;DHT22;5597;47.588;9.642;2023-06-10T15:07:34;32.70;63.30
11087;DHT22;5597;47.588;9.642;2023-06-10T15:09:59;32.90;65.30
11087;DHT22;5597;47.588;9.642;2023-06-10T15:12:25;33.00;64.30
11087;DHT22;5597;47.588;9.642;2023-06-10T15:14:51;32.70;64.50
11087;DHT22;5597;47.588;9.642;2023-06-10T15:17:16;32.60;64.30
11087;DHT22;5597;47.588;9.642;2023-06-10T15:19:42;32.50;61.00
11087;DHT22;5597;47.588;9.642;2023-06-10T15:22:08;32.10;61.00
11087;DHT22;5597;47.588;9.642;2023-06-10T15:24:33;31.80;62.40
11087;DHT22;5597;47.588;9.642;2023-06-10T15:26:59;31.40;63.40
11087;DHT22;5597;47.588;9.642;2023-06-10T15:29:25;30.90;64.50
11087;DHT22;5597;47.588;9.642;2023-06-10T15:31:51;30.50;66.80
11087;DHT22;5597;47.588;9.642;2023-06-10T15:34:16;30.20;66.40
11087;DHT22;5597;47.588;9.642;2023-06-10T15:36:42;30.00;67.40
11087;DHT22;5597;47.588;9.642;2023-06-10T15:39:08;29.80;67.80
11087;DHT22;5597;47.588;9.642;2023-06-10T15:41:34;29.70;68.70
11087;DHT22;5597;47.588;9.642;2023-06-10T15:44:00;29.60;69.00
11087;DHT22;5597;47.588;9.642;2023-06-10T15:46:29;29.60;69.80
11087;DHT22;5597;47.588;9.642;2023-06-10T15:48:55;29.70;67.20
11087;DHT22;5597;47.588;9.642;2023-06-10T15:51:22;29.70;68.10
11087;DHT22;5597;47.588;9.642;2023-06-10T15:53:47;29.70;67.00
11087;DHT22;5597;47.588;9.642;2023-06-10T15:56:14;29.50;66.70
11087;DHT22;5597;47.588;9.642;2023-06-10T15:58:39;29.30;67.90
11087;DHT22;5597;47.588;9.642;2023-06-10T16:01:05;29.10;68.20
11087;DHT22;5597;47.588;9.642;2023-06-10T16:03:35;28.80;70.00
11087;DHT22;5597;47.588;9.642;2023-06-10T16:06:01;28.70;70.40
11087;DHT22;5597;47.588;9.642;2023-06-10T16:08:27;28.60;70.90
11087;DHT22;5597;47.588;9.642;2023-06-10T16:10:52;28.60;72.20